Time;durP1;ratioP1;P1;durP2;ratioP2;P2;SDS_P1;SDS_P2;PMS_P1;PMS_P2;Temp;Humidity;BMP_temperature;BMP_pressure;BME280_temperature;BME280_humidity;BME280_pressure;Samples;Min_cycle;Max_cycle;Signal;HPM_P1;HPM_P2
2022/05/07 00:01:03;;;;;;;;;;;12.10;99.90;;;;;;5035070;28;19925;-50
2022/05/07 00:03:29;;;;;;;;;;;12.10;99.90;;;;;;5052745;28;19925;-48
2022/05/07 00:05:54;;;;;;;;;;;12.10;99.90;;;;;;5052418;28;19925;-48
2022/05/07 00:08:19;;;;;;;;;;;12.10;99.90;;;;;;5052600;28;19925;-49
2022/05/07 00:10:45;;;;;;;;;;;12.10;99.90;;;;;;5052554;28;19931;-49
2022/05/07 00:13:11;;;;;;;;;;;12.10;99.90;;;;;;5034603;28;19987;-49
2022/05/07 00:15:36;;;;;;;;;;;12.10;99.90;;;;;;5053652;28;19932;-47
2022/05/07 00:18:03;;;;;;;;;;;12.10;99.90;;;;;;5056177;28;19960;-47
2022/05/07 00:20:30;;;;;;;;;;;12.10;99.90;;;;;;5055919;28;20288;-48
2022/05/07 00:22:55;;;;;;;;;;;12.20;99.90;;;;;;5056085;28;19925;-47
2022/05/07 00:25:21;;;;;;;;;;;12.10;99.90;;;;;;5056113;28;19931;-47
2022/05/07 00:27:46;;;;;;;;;;;12.10;99.90;;;;;;5055822;28;19986;-49
2022/05/07 00:30:12;;;;;;;;;;;12.10;99.90;;;;;;5056129;28;19925;-47
2022/05/07 00:32:37;;;;;;;;;;;12.10;99.90;;;;;;5037908;28;20344;-47
2022/05/07 00:35:03;;;;;;;;;;;12.10;99.90;;;;;;5055606;28;20417;-49
2022/05/07 00:37:29;;;;;;;;;;;12.10;99.90;;;;;;5037899;28;19924;-51
2022/05/07 00:39:54;;;;;;;;;;;12.00;99.90;;;;;;5055788;28;19925;-49
2022/05/07 00:42:20;;;;;;;;;;;12.10;99.90;;;;;;5055583;28;19925;-50
2022/05/07 00:44:46;;;;;;;;;;;12.10;99.90;;;;;;5055737;28;19925;-46
2022/05/07 00:47:17;;;;;;;;;;;12.10;99.90;;;;;;5055615;28;20401;-50
2022/05/07 00:49:46;;;;;;;;;;;12.00;99.90;;;;;;5054481;28;19931;-52
2022/05/07 00:52:13;;;;;;;;;;;12.10;99.90;;;;;;5055298;28;19925;-48
2022/05/07 00:54:38;;;;;;;;;;;12.10;99.90;;;;;;5037698;28;20016;-52
2022/05/07 00:57:04;;;;;;;;;;;12.10;99.90;;;;;;5055136;28;20466;-48
2022/05/07 00:59:29;;;;;;;;;;;12.10;99.90;;;;;;5055393;28;20430;-46
2022/05/07 01:01:55;;;;;;;;;;;12.10;99.90;;;;;;5055208;28;19925;-47
2022/05/07 01:04:20;;;;;;;;;;;12.10;99.90;;;;;;5055322;28;19924;-47
2022/05/07 01:06:46;;;;;;;;;;;12.00;99.90;;;;;;5055290;28;20420;-46
2022/05/07 01:09:11;;;;;;;;;;;12.00;99.90;;;;;;5055086;28;19932;-47
2022/05/07 01:11:37;;;;;;;;;;;12.00;99.90;;;;;;5053874;28;20302;-51
2022/05/07 01:14:03;;;;;;;;;;;12.00;99.90;;;;;;5055218;28;19925;-53
2022/05/07 01:16:28;;;;;;;;;;;11.90;99.90;;;;;;5055060;28;19924;-49
2022/05/07 01:18:54;;;;;;;;;;;11.90;99.90;;;;;;5055329;28;19924;-47
2022/05/07 01:21:19;;;;;;;;;;;11.90;99.90;;;;;;5054835;28;19979;-49
2022/05/07 01:23:47;;;;;;;;;;;11.90;99.90;;;;;;5055028;28;19932;-47
2022/05/07 01:26:13;;;;;;;;;;;11.90;99.90;;;;;;5054457;28;20019;-50
2022/05/07 01:28:39;;;;;;;;;;;;;;;;;;5052843;28;20008;-48
2022/05/07 01:31:05;;;;;;;;;;;11.80;99.90;;;;;;5054917;28;19931;-50
2022/05/07 01:33:34;;;;;;;;;;;11.80;99.90;;;;;;5054932;28;19924;-50
2022/05/07 01:36:01;;;;;;;;;;;11.80;99.90;;;;;;5055049;28;19931;-51
2022/05/07 01:38:26;;;;;;;;;;;11.80;99.90;;;;;;5054508;28;19924;-51
2022/05/07 01:40:53;;;;;;;;;;;11.70;99.90;;;;;;5054443;28;19978;-47
2022/05/07 01:43:18;;;;;;;;;;;11.70;99.90;;;;;;5054572;28;19994;-47
2022/05/07 01:45:44;;;;;;;;;;;11.70;99.90;;;;;;5036644;28;20387;-47
2022/05/07 01:48:10;;;;;;;;;;;11.70;99.90;;;;;;5054493;28;19925;-47
2022/05/07 01:50:39;;;;;;;;;;;11.70;99.90;;;;;;5095537;22;19931;-85
2022/05/07 01:53:05;;;;;;;;;;;11.70;99.90;;;;;;5049099;28;19928;-85
2022/05/07 01:55:31;;;;;;;;;;;11.70;99.90;;;;;;5046796;28;19931;-86
2022/05/07 01:57:58;;;;;;;;;;;11.70;99.90;;;;;;5072676;28;19924;-85
2022/05/07 02:00:23;;;;;;;;;;;11.70;99.90;;;;;;5057956;28;19931;-85
2022/05/07 02:02:49;;;;;;;;;;;11.70;99.90;;;;;;5057966;28;20288;-86
2022/05/07 02:05:14;;;;;;;;;;;11.70;99.90;;;;;;5074205;28;19924;-86
2022/05/07 02:07:39;;;;;;;;;;;11.60;99.90;;;;;;5085791;28;19995;-86
2022/05/07 02:10:05;;;;;;;;;;;11.60;99.90;;;;;;5037713;28;20463;-86
2022/05/07 02:12:30;;;;;;;;;;;11.60;99.90;;;;;;5037484;28;19979;-86
2022/05/07 02:14:56;;;;;;;;;;;11.60;99.90;;;;;;5071091;28;19925;-86
2022/05/07 02:17:22;;;;;;;;;;;11.60;99.90;;;;;;5070878;28;19925;-86
2022/05/07 02:19:48;;;;;;;;;;;11.60;99.90;;;;;;5071433;28;19925;-86
2022/05/07 02:22:13;;;;;;;;;;;11.70;99.90;;;;;;5072004;28;19990;-86
2022/05/07 02:24:39;;;;;;;;;;;11.70;99.90;;;;;;5076801;28;19928;-86
2022/05/07 02:27:04;;;;;;;;;;;11.70;99.90;;;;;;5092348;28;19924;-86
2022/05/07 02:29:30;;;;;;;;;;;11.80;99.90;;;;;;5092266;28;19932;-85
2022/05/07 02:32:05;;;;;;;;;;;11.80;99.90;;;;;;5092276;28;20270;-85
2022/05/07 02:34:34;;;;;;;;;;;11.70;99.90;;;;;;5073767;28;19924;-86
2022/05/07 02:37:00;;;;;;;;;;;11.80;99.90;;;;;;5073904;28;19925;-86
2022/05/07 02:39:26;;;;;;;;;;;11.80;99.90;;;;;;5091992;28;19924;-86
2022/05/07 02:44:36;;;;;;;;;;;11.80;99.90;;;;;;5073800;28;19974;-86
2022/05/07 02:47:02;;;;;;;;;;;11.80;99.90;;;;;;5073311;28;19963;-86
2022/05/07 02:49:27;;;;;;;;;;;11.90;99.90;;;;;;5090574;28;19936;-86
2022/05/07 02:51:53;;;;;;;;;;;11.90;99.90;;;;;;5073382;28;19934;-86
2022/05/07 02:54:18;;;;;;;;;;;11.90;99.90;;;;;;5073851;28;20400;-86
2022/05/07 02:56:44;;;;;;;;;;;12.00;99.90;;;;;;5073824;28;19986;-86
2022/05/07 02:59:09;;;;;;;;;;;12.00;99.90;;;;;;5065691;28;19968;-86
2022/05/07 03:01:35;;;;;;;;;;;12.00;99.90;;;;;;5071247;28;19924;-86
2022/05/07 03:04:00;;;;;;;;;;;12.00;99.90;;;;;;5071578;28;20377;-85
2022/05/07 03:06:26;;;;;;;;;;;12.00;99.90;;;;;;5070355;28;19925;-86
2022/05/07 03:08:52;;;;;;;;;;;12.00;99.90;;;;;;5070567;28;19969;-86
2022/05/07 03:11:17;;;;;;;;;;;12.10;99.90;;;;;;5071727;28;20143;-86
2022/05/07 03:13:43;;;;;;;;;;;12.10;99.90;;;;;;5053295;28;20011;-86
2022/05/07 03:16:08;;;;;;;;;;;12.10;99.90;;;;;;5052944;28;19931;-86
2022/05/07 03:18:35;;;;;;;;;;;12.10;99.90;;;;;;5053380;28;19924;-86
2022/05/07 03:21:01;;;;;;;;;;;12.10;99.90;;;;;;5053169;28;20377;-86
2022/05/07 03:23:26;;;;;;;;;;;12.10;99.90;;;;;;5053401;28;19976;-86
2022/05/07 03:25:52;;;;;;;;;;;12.10;99.90;;;;;;5053329;28;19921;-86
2022/05/07 03:28:18;;;;;;;;;;;12.10;99.90;;;;;;5053462;28;19932;-85
2022/05/07 03:30:43;;;;;;;;;;;12.10;99.90;;;;;;5053052;28;19925;-86
2022/05/07 03:33:09;;;;;;;;;;;12.10;99.90;;;;;;5071301;28;19946;-86
2022/05/07 03:35:34;;;;;;;;;;;12.10;99.90;;;;;;5053409;28;19924;-85
2022/05/07 03:38:00;;;;;;;;;;;12.10;99.90;;;;;;5053510;28;19987;-86
2022/05/07 03:40:25;;;;;;;;;;;12.10;99.90;;;;;;5053263;28;19925;-86
2022/05/07 03:42:51;;;;;;;;;;;12.00;99.90;;;;;;5070034;28;19924;-86
2022/05/07 03:45:16;;;;;;;;;;;12.00;99.90;;;;;;5052808;28;19937;-86
2022/05/07 03:47:42;;;;;;;;;;;11.90;99.90;;;;;;5053417;28;20314;-86
2022/05/07 03:50:07;;;;;;;;;;;11.90;99.90;;;;;;5070199;28;20007;-86
2022/05/07 03:55:17;;;;;;;;;;;11.90;99.90;;;;;;5056784;28;19932;-86
2022/05/07 03:57:43;;;;;;;;;;;11.90;99.90;;;;;;5073810;28;19925;-86
2022/05/07 04:00:08;;;;;;;;;;;11.90;99.90;;;;;;5074316;28;20412;-86
2022/05/07 04:02:35;;;;;;;;;;;11.90;99.90;;;;;;5056729;28;19928;-86
2022/05/07 04:05:04;;;;;;;;;;;11.90;99.90;;;;;;5074572;28;20292;-86
2022/05/07 04:07:29;;;;;;;;;;;11.90;99.90;;;;;;5073519;28;20023;-86
2022/05/07 04:09:55;;;;;;;;;;;11.90;99.90;;;;;;5074615;28;20066;-86
2022/05/07 04:12:21;;;;;;;;;;;11.90;99.90;;;;;;5074399;28;19925;-86
2022/05/07 04:14:46;;;;;;;;;;;11.90;99.90;;;;;;5073770;28;20000;-86
2022/05/07 04:17:12;;;;;;;;;;;11.90;99.90;;;;;;5073169;28;19928;-86
2022/05/07 04:19:37;;;;;;;;;;;11.90;99.90;;;;;;5074639;28;19971;-85
2022/05/07 04:22:03;;;;;;;;;;;11.90;99.90;;;;;;5040174;28;19928;-86
2022/05/07 04:24:29;;;;;;;;;;;11.90;99.90;;;;;;5056291;28;20365;-86
2022/05/07 04:26:54;;;;;;;;;;;12.00;99.90;;;;;;5072987;28;19924;-86
2022/05/07 04:29:20;;;;;;;;;;;12.00;99.90;;;;;;5055903;28;19981;-86
2022/05/07 04:31:46;;;;;;;;;;;12.00;99.90;;;;;;5056471;28;19948;-86
2022/05/07 04:34:12;;;;;;;;;;;12.00;99.90;;;;;;5056283;28;19924;-85
2022/05/07 04:36:37;;;;;;;;;;;12.00;99.90;;;;;;5055969;28;20270;-86
2022/05/07 04:39:03;;;;;;;;;;;12.00;99.90;;;;;;5074202;28;19932;-86
2022/05/07 04:41:28;;;;;;;;;;;12.10;99.90;;;;;;5055955;28;20031;-86
2022/05/07 04:43:54;;;;;;;;;;;12.10;99.90;;;;;;5072343;28;20017;-86
2022/05/07 04:46:19;;;;;;;;;;;12.20;99.90;;;;;;5056296;28;20273;-85
2022/05/07 04:48:46;;;;;;;;;;;12.20;99.90;;;;;;5072554;28;19924;-86
2022/05/07 04:51:11;;;;;;;;;;;12.30;99.90;;;;;;5072319;28;19931;-86
2022/05/07 04:53:37;;;;;;;;;;;12.30;99.90;;;;;;5073896;28;19928;-86
2022/05/07 04:56:03;;;;;;;;;;;12.40;99.90;;;;;;5073817;28;19925;-86
2022/05/07 04:58:28;;;;;;;;;;;12.40;99.90;;;;;;5073252;28;20285;-87
2022/05/07 05:00:54;;;;;;;;;;;12.50;99.90;;;;;;5055557;28;20282;-86
2022/05/07 05:03:19;;;;;;;;;;;12.60;99.90;;;;;;5072519;28;19932;-86
2022/05/07 05:05:45;;;;;;;;;;;12.60;99.90;;;;;;5073624;28;20361;-86
2022/05/07 05:08:10;;;;;;;;;;;12.70;99.90;;;;;;5073503;28;20028;-86
2022/05/07 05:10:36;;;;;;;;;;;12.80;99.90;;;;;;5072333;28;20003;-86
2022/05/07 05:13:01;;;;;;;;;;;12.80;99.90;;;;;;5055169;28;19933;-86
2022/05/07 05:15:27;;;;;;;;;;;12.90;99.90;;;;;;5073285;28;19972;-86
2022/05/07 05:17:52;;;;;;;;;;;13.00;99.90;;;;;;5038825;28;19932;-87
2022/05/07 05:20:18;;;;;;;;;;;13.10;99.90;;;;;;5072114;28;19924;-86
2022/05/07 05:22:48;;;;;;;;;;;13.20;99.90;;;;;;5072113;28;19924;-86
2022/05/07 05:25:14;;;;;;;;;;;13.20;99.90;;;;;;5072052;28;19981;-87
2022/05/07 05:27:39;;;;;;;;;;;13.30;99.90;;;;;;5071400;28;20025;-86
2022/05/07 05:30:05;;;;;;;;;;;13.30;99.90;;;;;;5054898;28;19982;-87
2022/05/07 05:32:30;;;;;;;;;;;13.40;99.90;;;;;;5071712;28;19925;-87
2022/05/07 05:34:56;;;;;;;;;;;13.50;99.90;;;;;;5055315;28;19924;-87
2022/05/07 05:37:21;;;;;;;;;;;13.50;99.90;;;;;;5038255;28;19931;-87
2022/05/07 05:39:47;;;;;;;;;;;13.50;99.90;;;;;;5071468;28;19935;-87
2022/05/07 05:42:13;;;;;;;;;;;13.60;99.90;;;;;;5071315;28;20015;-86
2022/05/07 05:44:39;;;;;;;;;;;13.60;99.90;;;;;;5054702;28;20027;-87
2022/05/07 05:47:05;;;;;;;;;;;13.60;99.90;;;;;;5071367;28;19964;-87
2022/05/07 05:49:30;;;;;;;;;;;13.60;99.90;;;;;;5071429;28;19970;-87
2022/05/07 05:51:56;;;;;;;;;;;13.60;99.90;;;;;;5054456;28;19925;-87
2022/05/07 05:54:21;;;;;;;;;;;13.60;99.90;;;;;;5037984;28;20379;-87
2022/05/07 05:56:47;;;;;;;;;;;13.70;99.90;;;;;;5070632;28;19993;-87
2022/05/07 05:59:12;;;;;;;;;;;13.70;99.90;;;;;;5037843;28;19924;-87
2022/05/07 06:01:38;;;;;;;;;;;13.80;99.90;;;;;;5072783;28;20007;-87
2022/05/07 06:04:03;;;;;;;;;;;13.90;99.90;;;;;;5054803;28;19925;-86
2022/05/07 06:06:29;;;;;;;;;;;14.00;99.90;;;;;;5071028;28;20450;-87
2022/05/07 06:08:54;;;;;;;;;;;14.10;99.90;;;;;;5072748;28;20280;-87
2022/05/07 06:11:20;;;;;;;;;;;14.20;99.90;;;;;;5070229;28;19932;-87
2022/05/07 06:13:47;;;;;;;;;;;14.40;99.90;;;;;;5053737;28;19966;-86
2022/05/07 06:16:12;;;;;;;;;;;14.60;99.90;;;;;;5071265;28;19924;-87
2022/05/07 06:18:38;;;;;;;;;;;14.80;99.90;;;;;;5038438;28;19994;-87
2022/05/07 06:21:03;;;;;;;;;;;15.00;99.90;;;;;;5071047;28;19932;-87
2022/05/07 06:23:29;;;;;;;;;;;15.30;99.90;;;;;;5054076;28;19932;-86
2022/05/07 06:28:42;;;;;;;;;;;15.80;99.90;;;;;;5072142;28;19946;-87
2022/05/07 06:31:10;;;;;;;;;;;16.00;99.90;;;;;;5053890;28;20438;-87
2022/05/07 06:33:36;;;;;;;;;;;16.00;99.90;;;;;;5053987;28;19925;-87
2022/05/07 06:36:02;;;;;;;;;;;16.20;99.90;;;;;;5053869;28;19932;-87
2022/05/07 06:38:27;;;;;;;;;;;16.50;99.90;;;;;;5053925;28;19928;-86
2022/05/07 06:40:56;;;;;;;;;;;16.80;99.90;;;;;;5036469;28;20270;-87
2022/05/07 06:43:22;;;;;;;;;;;17.20;99.90;;;;;;5070783;28;20018;-87
2022/05/07 06:45:48;;;;;;;;;;;17.40;99.90;;;;;;5037170;28;20389;-86
2022/05/07 06:48:13;;;;;;;;;;;17.60;99.90;;;;;;5053808;28;19928;-86
2022/05/07 06:50:39;;;;;;;;;;;17.70;99.90;;;;;;5070246;28;20327;-86
2022/05/07 06:53:04;;;;;;;;;;;17.80;99.90;;;;;;5070346;28;19924;-85
2022/05/07 06:55:32;;;;;;;;;;;17.90;99.90;;;;;;5053112;28;19928;-86
2022/05/07 06:57:58;;;;;;;;;;;18.20;99.90;;;;;;5070246;28;20399;-86
2022/05/07 07:00:24;;;;;;;;;;;18.30;99.90;;;;;;5070337;28;20405;-86
2022/05/07 07:02:50;;;;;;;;;;;18.60;99.90;;;;;;5037045;28;19931;-86
2022/05/07 07:05:15;;;;;;;;;;;18.80;99.90;;;;;;5053498;28;20011;-86
2022/05/07 07:07:41;;;;;;;;;;;19.10;99.90;;;;;;5053504;28;19924;-86
2022/05/07 07:10:07;;;;;;;;;;;19.10;99.90;;;;;;5053107;28;19976;-86
2022/05/07 07:12:32;;;;;;;;;;;19.10;99.90;;;;;;5053247;28;19924;-86
2022/05/07 07:14:58;;;;;;;;;;;19.00;99.90;;;;;;5071611;28;20000;-85
2022/05/07 07:17:25;;;;;;;;;;;18.70;99.90;;;;;;5070092;28;20337;-86
2022/05/07 07:19:51;;;;;;;;;;;18.70;99.90;;;;;;5053369;28;20007;-86
2022/05/07 07:22:16;;;;;;;;;;;18.60;99.90;;;;;;5052834;28;20349;-86
2022/05/07 07:24:42;;;;;;;;;;;18.50;99.90;;;;;;5070212;28;19925;-86
2022/05/07 07:27:08;;;;;;;;;;;18.40;99.90;;;;;;5040792;28;19930;-85
2022/05/07 07:29:34;;;;;;;;;;;18.30;99.90;;;;;;5057364;28;19931;-86
2022/05/07 07:31:59;;;;;;;;;;;18.20;99.90;;;;;;5057846;28;20334;-86
2022/05/07 07:34:25;;;;;;;;;;;18.10;99.90;;;;;;5057357;28;19925;-86
2022/05/07 07:36:50;;;;;;;;;;;18.10;99.90;;;;;;5073336;28;19924;-86
2022/05/07 07:39:16;;;;;;;;;;;18.10;99.90;;;;;;5075299;28;19924;-86
2022/05/07 07:41:43;;;;;;;;;;;18.20;99.90;;;;;;5073986;28;19925;-86
2022/05/07 07:44:09;;;;;;;;;;;18.40;99.90;;;;;;5057124;28;20013;-86
2022/05/07 07:49:18;;;;;;;;;;;19.00;99.90;;;;;;5074867;28;19924;-86
2022/05/07 07:51:44;;;;;;;;;;;19.30;99.90;;;;;;5056229;28;20027;-86
2022/05/07 07:54:10;;;;;;;;;;;19.50;99.90;;;;;;5075091;28;19924;-86
2022/05/07 07:56:35;;;;;;;;;;;19.50;99.90;;;;;;5074937;28;19928;-86
2022/05/07 07:59:01;;;;;;;;;;;19.40;99.90;;;;;;5057136;28;19924;-86
2022/05/07 08:01:26;;;;;;;;;;;19.40;99.90;;;;;;5056600;28;20373;-86
2022/05/07 08:03:51;;;;;;;;;;;19.30;99.90;;;;;;5073624;28;19947;-86
2022/05/07 08:06:17;;;;;;;;;;;19.30;99.90;;;;;;5056059;28;19970;-86
2022/05/07 08:11:44;;;;;;;;;;;19.50;99.90;;;;;;5056431;28;20391;-86
2022/05/07 08:14:13;;;;;;;;;;;19.60;99.90;;;;;;5074526;28;19932;-86
2022/05/07 08:16:38;;;;;;;;;;;19.60;99.90;;;;;;5056538;28;19974;-86
2022/05/07 08:19:04;;;;;;;;;;;19.70;99.90;;;;;;5074650;28;19928;-85
2022/05/07 08:21:29;;;;;;;;;;;19.80;99.90;;;;;;5056242;28;20446;-86
2022/05/07 08:23:55;;;;;;;;;;;20.00;99.90;;;;;;5074332;28;20344;-86
2022/05/07 08:26:21;;;;;;;;;;;20.20;99.90;;;;;;5074412;28;19925;-86
2022/05/07 08:28:46;;;;;;;;;;;20.20;99.90;;;;;;5073313;28;20377;-86
2022/05/07 08:31:12;;;;;;;;;;;20.20;99.90;;;;;;5056219;28;19924;-86
2022/05/07 08:33:40;;;;;;;;;;;20.10;99.90;;;;;;5056425;28;19931;-86
2022/05/07 08:36:07;;;;;;;;;;;20.00;99.90;;;;;;5055246;28;19970;-86
2022/05/07 08:38:32;;;;;;;;;;;19.80;99.90;;;;;;5056270;28;19925;-86
2022/05/07 08:40:59;;;;;;;;;;;19.70;99.90;;;;;;5073990;28;19928;-85
2022/05/07 08:43:24;;;;;;;;;;;19.50;99.90;;;;;;5073975;28;19925;-86
2022/05/07 08:45:51;;;;;;;;;;;;;;;;;;5055864;28;19924;-86
2022/05/07 08:48:18;;;;;;;;;;;19.20;99.90;;;;;;5055987;28;20069;-86
2022/05/07 08:50:44;;;;;;;;;;;18.90;99.90;;;;;;5073234;28;19924;-86
2022/05/07 08:53:09;;;;;;;;;;;18.90;99.90;;;;;;5055839;28;19924;-86
2022/05/07 08:55:35;;;;;;;;;;;18.80;99.90;;;;;;5055512;28;19946;-86
2022/05/07 08:58:01;;;;;;;;;;;18.70;99.90;;;;;;5055687;28;19971;-86
2022/05/07 09:00:27;;;;;;;;;;;18.60;99.90;;;;;;5072411;28;20395;-85
2022/05/07 09:02:55;;;;;;;;;;;18.50;99.90;;;;;;5072133;28;19925;-86
2022/05/07 09:05:21;;;;;;;;;;;18.60;99.90;;;;;;5071801;28;20411;-85
2022/05/07 09:07:54;;;;;;;;;;;18.60;99.90;;;;;;5055777;28;20385;-86
2022/05/07 09:10:19;;;;;;;;;;;18.80;99.90;;;;;;5072058;28;19924;-86
2022/05/07 09:12:45;;;;;;;;;;;18.90;99.90;;;;;;5073447;28;19925;-86
2022/05/07 09:15:11;;;;;;;;;;;19.30;99.90;;;;;;5072469;28;19928;-86
2022/05/07 09:17:37;;;;;;;;;;;19.60;99.90;;;;;;5073359;28;19924;-86
2022/05/07 09:20:15;;;;;;;;;;;19.80;99.90;;;;;;5055165;28;19993;-86
2022/05/07 09:22:49;;;;;;;;;;;20.00;99.90;;;;;;5071903;28;19924;-86
2022/05/07 09:25:18;;;;;;;;;;;20.60;99.90;;;;;;5055021;28;19925;-86
2022/05/07 09:27:45;;;;;;;;;;;21.20;99.90;;;;;;5072198;28;19947;-84
2022/05/07 09:30:10;;;;;;;;;;;21.40;99.90;;;;;;5055394;28;19925;-84
2022/05/07 09:32:37;;;;;;;;;;;21.20;99.90;;;;;;5071886;28;20285;-86
2022/05/07 09:37:59;;;;;;;;;;;21.80;99.90;;;;;;5072748;28;19924;-86
2022/05/07 09:40:25;;;;;;;;;;;22.00;99.90;;;;;;5054895;28;19924;-86
2022/05/07 09:42:51;;;;;;;;;;;21.80;99.90;;;;;;5054627;28;19947;-86
2022/05/07 09:45:17;;;;;;;;;;;21.70;99.90;;;;;;5054747;28;19924;-86
2022/05/07 09:47:43;;;;;;;;;;;21.70;99.90;;;;;;5053699;28;20001;-86
2022/05/07 09:50:21;;;;;;;;;;;22.10;99.90;;;;;;5054174;28;20416;-86
2022/05/07 09:58:19;;;;;;;;;;;22.60;99.90;;;;;;5054564;28;19959;-86
2022/05/07 10:01:03;;;;;;;;;;;22.40;99.90;;;;;;5072320;28;19924;-86
2022/05/07 10:03:41;;;;;;;;;;;22.60;99.90;;;;;;5054043;28;20677;-86
2022/05/07 10:06:15;;;;;;;;;;;22.60;99.90;;;;;;5054391;28;19924;-86
2022/05/07 10:09:02;;;;;;;;;;;22.50;99.90;;;;;;5072284;28;19931;-86
2022/05/07 10:11:28;;;;;;;;;;;22.60;99.90;;;;;;5037786;28;19925;-86
2022/05/07 10:13:54;;;;;;;;;;;22.70;99.90;;;;;;5054201;28;20027;-84
2022/05/07 10:16:21;;;;;;;;;;;22.90;99.90;;;;;;5070300;28;19963;-84
2022/05/07 10:18:46;;;;;;;;;;;23.10;99.90;;;;;;5054409;28;19928;-84
2022/05/07 10:21:18;;;;;;;;;;;22.30;98.30;;;;;;5072091;28;19925;-84
2022/05/07 10:23:52;;;;;;;;;;;22.70;99.90;;;;;;5037291;28;19924;-84
2022/05/07 10:26:18;;;;;;;;;;;22.70;99.90;;;;;;5070900;28;20341;-84
2022/05/07 10:28:43;;;;;;;;;;;22.00;98.40;;;;;;5054001;28;20019;-84
2022/05/07 10:31:35;;;;;;;;;;;21.90;99.60;;;;;;5071640;28;20293;-84
2022/05/07 10:34:01;;;;;;;;;;;21.90;99.90;;;;;;5049980;28;20003;-84
2022/05/07 10:36:35;;;;;;;;;;;22.00;99.90;;;;;;5070703;28;20015;-84
2022/05/07 10:39:08;;;;;;;;;;;21.80;99.90;;;;;;5054346;28;19924;-84
2022/05/07 10:41:44;;;;;;;;;;;22.20;99.90;;;;;;5070474;28;20395;-86
2022/05/07 10:44:10;;;;;;;;;;;22.50;99.90;;;;;;5054195;28;19925;-86
2022/05/07 10:46:37;;;;;;;;;;;22.30;99.90;;;;;;5053599;28;20377;-86
2022/05/07 10:49:06;;;;;;;;;;;22.30;99.90;;;;;;5053823;28;19932;-86
2022/05/07 10:51:40;;;;;;;;;;;22.50;99.30;;;;;;5037230;28;20434;-86
2022/05/07 10:54:18;;;;;;;;;;;22.50;99.10;;;;;;5071713;28;20388;-86
2022/05/07 10:56:47;;;;;;;;;;;22.30;99.90;;;;;;5070226;28;19925;-86
2022/05/07 10:59:13;;;;;;;;;;;22.60;99.90;;;;;;5071389;28;19932;-86
2022/05/07 11:01:39;;;;;;;;;;;22.60;99.20;;;;;;5071231;28;19969;-84
2022/05/07 11:04:08;;;;;;;;;;;22.60;99.40;;;;;;5053656;28;20019;-85
2022/05/07 11:06:40;;;;;;;;;;;22.50;99.90;;;;;;5037368;28;19948;-85
2022/05/07 11:09:06;;;;;;;;;;;22.50;99.40;;;;;;5053783;28;19925;-84
2022/05/07 11:11:40;;;;;;;;;;;22.10;99.10;;;;;;5053728;28;20506;-85
2022/05/07 11:14:06;;;;;;;;;;;22.30;99.90;;;;;;5053654;28;19987;-85
2022/05/07 11:16:31;;;;;;;;;;;22.40;99.90;;;;;;5069830;28;20020;-85
2022/05/07 11:18:57;;;;;;;;;;;22.50;99.90;;;;;;5071470;28;19931;-85
2022/05/07 11:21:23;;;;;;;;;;;22.10;99.90;;;;;;5070147;28;19924;-85
2022/05/07 11:23:55;;;;;;;;;;;22.10;99.90;;;;;;5053295;28;19924;-85
2022/05/07 11:26:21;;;;;;;;;;;21.70;99.10;;;;;;5053336;28;19928;-85
2022/05/07 11:28:49;;;;;;;;;;;22.00;99.90;;;;;;5069806;28;19974;-85
2022/05/07 11:31:29;;;;;;;;;;;21.50;99.60;;;;;;5071421;28;19924;-85
2022/05/07 11:34:01;;;;;;;;;;;21.40;99.90;;;;;;5071129;28;19925;-85
2022/05/07 11:36:27;;;;;;;;;;;21.30;99.90;;;;;;5069720;28;19972;-85
2022/05/07 11:38:56;;;;;;;;;;;21.40;99.90;;;;;;5037023;28;19976;-85
2022/05/07 11:41:22;;;;;;;;;;;21.60;99.90;;;;;;5059905;28;19928;-85
2022/05/07 11:46:46;;;;;;;;;;;21.70;99.90;;;;;;5072230;28;19947;-89
2022/05/07 11:49:12;;;;;;;;;;;21.80;99.90;;;;;;5063109;28;19924;-90
2022/05/07 11:51:38;;;;;;;;;;;21.80;99.90;;;;;;5053849;28;20321;-89
2022/05/07 11:54:09;;;;;;;;;;;22.00;99.90;;;;;;5034588;28;20401;-89
2022/05/07 11:56:47;;;;;;;;;;;22.00;99.90;;;;;;5036304;28;20002;-86
2022/05/07 11:59:14;;;;;;;;;;;21.80;99.90;;;;;;5045198;28;19979;-86
2022/05/07 12:01:40;;;;;;;;;;;21.70;99.90;;;;;;5048349;28;19924;-86
2022/05/07 12:04:09;;;;;;;;;;;22.00;99.90;;;;;;5047991;28;20455;-86
2022/05/07 12:06:34;;;;;;;;;;;21.80;99.90;;;;;;5048047;28;19933;-87
2022/05/07 12:09:10;;;;;;;;;;;22.00;99.90;;;;;;5025691;28;19924;-86
2022/05/07 12:11:36;;;;;;;;;;;21.80;99.90;;;;;;5048559;28;20282;-87
2022/05/07 12:14:02;;;;;;;;;;;21.20;99.90;;;;;;5033675;28;19924;-87
2022/05/07 12:19:11;;;;;;;;;;;21.60;99.90;;;;;;5049191;28;20450;-86
2022/05/07 12:29:50;;;;;;;;;;;20.90;99.90;;;;;;5052276;28;20293;-86
2022/05/07 12:32:19;;;;;;;;;;;20.90;99.90;;;;;;5051253;28;19925;-86
2022/05/07 12:34:45;;;;;;;;;;;20.70;99.90;;;;;;5050938;28;19925;-86
2022/05/07 12:37:11;;;;;;;;;;;20.50;99.90;;;;;;5051971;28;21448;-87
2022/05/07 12:39:37;;;;;;;;;;;20.60;99.90;;;;;;5052169;28;19925;-87
2022/05/07 12:42:07;;;;;;;;;;;20.70;99.90;;;;;;5051252;28;19948;-87
2022/05/07 12:44:32;;;;;;;;;;;21.30;99.90;;;;;;5035056;28;19924;-87
2022/05/07 12:46:58;;;;;;;;;;;21.10;99.80;;;;;;5052417;28;20435;-87
2022/05/07 12:49:23;;;;;;;;;;;20.70;99.90;;;;;;5033388;28;19925;-86
2022/05/07 12:51:50;;;;;;;;;;;20.80;99.90;;;;;;5050936;28;19925;-87
2022/05/07 12:54:17;;;;;;;;;;;20.80;99.90;;;;;;5048705;28;21300;-89
2022/05/07 12:56:44;;;;;;;;;;;20.80;99.90;;;;;;5049597;28;20350;-88
2022/05/07 12:59:09;;;;;;;;;;;20.70;99.90;;;;;;5048638;28;20019;-87
2022/05/07 13:01:35;;;;;;;;;;;21.10;99.90;;;;;;5050481;28;19975;-86
2022/05/07 13:04:00;;;;;;;;;;;21.30;99.90;;;;;;5050280;28;19925;-87
2022/05/07 13:06:26;;;;;;;;;;;21.10;99.90;;;;;;5050881;28;19926;-87
2022/05/07 13:08:52;;;;;;;;;;;21.10;99.90;;;;;;5049891;28;19932;-86
2022/05/07 13:11:17;;;;;;;;;;;20.90;99.90;;;;;;5033377;28;19929;-87
2022/05/07 13:13:44;;;;;;;;;;;21.30;99.90;;;;;;5049667;28;20019;-87
2022/05/07 13:16:11;;;;;;;;;;;21.70;99.90;;;;;;5051699;28;19924;-87
2022/05/07 13:18:36;;;;;;;;;;;21.90;99.60;;;;;;5047897;28;20012;-87
2022/05/07 13:21:02;;;;;;;;;;;21.70;98.50;;;;;;5051163;28;20019;-88
2022/05/07 13:23:27;;;;;;;;;;;21.60;98.80;;;;;;5048822;28;19929;-87
2022/05/07 13:25:53;;;;;;;;;;;21.80;99.00;;;;;;5050520;28;19925;-87
2022/05/07 13:28:19;;;;;;;;;;;21.80;97.90;;;;;;5049038;28;19925;-88
2022/05/07 13:30:44;;;;;;;;;;;22.00;96.90;;;;;;5051084;28;19924;-88
2022/05/07 13:33:10;;;;;;;;;;;22.00;98.00;;;;;;5050028;28;20288;-86
2022/05/07 13:35:35;;;;;;;;;;;21.50;97.60;;;;;;5052423;28;19925;-92
2022/05/07 13:38:01;;;;;;;;;;;21.20;97.70;;;;;;5050104;28;19972;-90
2022/05/07 13:40:26;;;;;;;;;;;21.10;98.50;;;;;;5049569;28;20301;-90
2022/05/07 13:42:53;;;;;;;;;;;21.20;98.60;;;;;;5044384;28;19971;-91
2022/05/07 13:45:20;;;;;;;;;;;21.40;97.00;;;;;;5050320;28;19925;-89
2022/05/07 13:47:45;;;;;;;;;;;21.70;97.20;;;;;;5050845;28;19925;-89
2022/05/07 13:50:12;;;;;;;;;;;22.00;97.30;;;;;;5055099;28;19924;-89
2022/05/07 13:52:38;;;;;;;;;;;21.90;96.90;;;;;;5091379;28;20376;-89
2022/05/07 13:55:05;;;;;;;;;;;21.20;97.50;;;;;;5071243;28;19924;-88
2022/05/07 13:57:31;;;;;;;;;;;21.40;98.40;;;;;;5073339;28;20042;-91
2022/05/07 13:59:57;;;;;;;;;;;21.50;98.40;;;;;;5074276;28;20002;-90
2022/05/07 14:02:22;;;;;;;;;;;21.40;98.60;;;;;;5073120;28;19935;-89
2022/05/07 14:04:49;;;;;;;;;;;21.40;98.70;;;;;;5073072;28;20301;-88
2022/05/07 14:07:17;;;;;;;;;;;21.40;98.50;;;;;;5073248;28;19924;-88
2022/05/07 14:09:47;;;;;;;;;;;22.00;98.40;;;;;;5072700;28;19924;-89
2022/05/07 14:12:14;;;;;;;;;;;21.40;97.70;;;;;;5082387;28;19924;-89
2022/05/07 14:14:39;;;;;;;;;;;21.10;98.10;;;;;;5073509;28;19924;-87
2022/05/07 14:17:05;;;;;;;;;;;20.90;98.70;;;;;;5057015;28;19924;-89
2022/05/07 14:19:30;;;;;;;;;;;20.50;99.50;;;;;;5072363;28;19928;-87
2022/05/07 14:21:56;;;;;;;;;;;20.30;99.70;;;;;;5072971;28;19946;-87
2022/05/07 14:24:21;;;;;;;;;;;20.20;99.90;;;;;;5071180;28;19924;-88
2022/05/07 14:26:47;;;;;;;;;;;20.70;99.90;;;;;;5053731;28;19931;-89
2022/05/07 14:29:12;;;;;;;;;;;20.60;99.90;;;;;;5071846;28;20015;-89
2022/05/07 14:31:38;;;;;;;;;;;20.30;99.90;;;;;;5073175;28;19928;-89
2022/05/07 14:34:03;;;;;;;;;;;20.30;99.90;;;;;;5071551;28;19925;-89
2022/05/07 14:36:29;;;;;;;;;;;19.80;99.90;;;;;;5069121;28;19924;-90
2022/05/07 14:38:55;;;;;;;;;;;19.70;99.90;;;;;;5083792;28;19972;-90
2022/05/07 14:41:21;;;;;;;;;;;19.40;99.90;;;;;;5056380;28;20277;-89
2022/05/07 14:43:46;;;;;;;;;;;19.20;99.90;;;;;;5089003;28;19925;-88
2022/05/07 14:46:12;;;;;;;;;;;19.30;99.90;;;;;;5073247;28;19931;-88
2022/05/07 14:48:37;;;;;;;;;;;19.20;99.90;;;;;;5054670;28;19928;-89
2022/05/07 14:51:03;;;;;;;;;;;19.40;99.90;;;;;;5074623;28;19924;-93